sensor_id;sensor_type;location;lat;lon;timestamp;temperature;humidity
2363;DHT22;64265;51.664;7.626;2023-02-10T00:01:54;19.70;64.00
2363;DHT22;64265;51.664;7.626;2023-02-10T00:04:20;19.70;64.10
2363;DHT22;64265;51.664;7.626;2023-02-10T00:06:47;19.70;64.20
2363;DHT22;64265;51.664;7.626;2023-02-10T00:09:14;19.70;64.40
2363;DHT22;64265;51.664;7.626;2023-02-10T00:11:42;19.70;64.30
2363;DHT22;64265;51.664;7.626;2023-02-10T00:14:26;19.70;64.30
2363;DHT22;64265;51.664;7.626;2023-02-10T00:16:53;19.70;64.40
2363;DHT22;64265;51.664;7.626;2023-02-10T00:19:21;19.70;64.40
2363;DHT22;64265;51.664;7.626;2023-02-10T00:21:48;19.70;64.50
2363;DHT22;64265;51.664;7.626;2023-02-10T00:24:15;19.70;64.50
2363;DHT22;64265;51.664;7.626;2023-02-10T00:26:44;19.70;64.50
2363;DHT22;64265;51.664;7.626;2023-02-10T00:29:11;19.70;64.50
2363;DHT22;64265;51.664;7.626;2023-02-10T00:31:37;19.70;64.50
2363;DHT22;64265;51.664;7.626;2023-02-10T00:34:04;19.70;64.60
2363;DHT22;64265;51.664;7.626;2023-02-10T00:36:31;19.70;64.50
2363;DHT22;64265;51.664;7.626;2023-02-10T00:38:57;19.70;64.60
2363;DHT22;64265;51.664;7.626;2023-02-10T00:41:24;19.70;64.50
2363;DHT22;64265;51.664;7.626;2023-02-10T00:43:53;19.70;64.50
2363;DHT22;64265;51.664;7.626;2023-02-10T00:46:21;19.70;64.60
2363;DHT22;64265;51.664;7.626;2023-02-10T00:48:48;19.70;64.50
2363;DHT22;64265;51.664;7.626;2023-02-10T00:51:16;19.70;64.50
2363;DHT22;64265;51.664;7.626;2023-02-10T00:53:43;19.70;64.50
2363;DHT22;64265;51.664;7.626;2023-02-10T00:56:11;19.70;64.50
2363;DHT22;64265;51.664;7.626;2023-02-10T00:58:38;19.70;64.60
2363;DHT22;64265;51.664;7.626;2023-02-10T01:01:06;19.70;64.50
2363;DHT22;64265;51.664;7.626;2023-02-10T01:03:33;19.70;64.50
2363;DHT22;64265;51.664;7.626;2023-02-10T01:06:00;19.70;64.50
2363;DHT22;64265;51.664;7.626;2023-02-10T01:08:27;19.70;64.50
2363;DHT22;64265;51.664;7.626;2023-02-10T01:10:59;19.70;64.50
2363;DHT22;64265;51.664;7.626;2023-02-10T01:13:26;19.70;64.50
2363;DHT22;64265;51.664;7.626;2023-02-10T01:15:53;19.70;64.50
2363;DHT22;64265;51.664;7.626;2023-02-10T01:18:21;19.70;64.50
2363;DHT22;64265;51.664;7.626;2023-02-10T01:20:48;19.70;64.50
2363;DHT22;64265;51.664;7.626;2023-02-10T01:23:14;19.70;64.50
2363;DHT22;64265;51.664;7.626;2023-02-10T01:25:41;19.70;64.50
2363;DHT22;64265;51.664;7.626;2023-02-10T01:28:08;19.70;64.50
2363;DHT22;64265;51.664;7.626;2023-02-10T01:30:35;19.70;64.50
2363;DHT22;64265;51.664;7.626;2023-02-10T01:33:02;19.70;64.50
2363;DHT22;64265;51.664;7.626;2023-02-10T01:35:31;19.70;64.50
2363;DHT22;64265;51.664;7.626;2023-02-10T01:37:57;19.70;64.40
2363;DHT22;64265;51.664;7.626;2023-02-10T01:40:25;19.70;64.40
2363;DHT22;64265;51.664;7.626;2023-02-10T01:42:52;19.70;64.40
2363;DHT22;64265;51.664;7.626;2023-02-10T01:45:20;19.70;64.50
2363;DHT22;64265;51.664;7.626;2023-02-10T01:47:50;19.70;64.30
2363;DHT22;64265;51.664;7.626;2023-02-10T01:50:20;19.60;64.30
2363;DHT22;64265;51.664;7.626;2023-02-10T01:52:49;19.60;64.30
2363;DHT22;64265;51.664;7.626;2023-02-10T01:55:17;19.60;64.30
2363;DHT22;64265;51.664;7.626;2023-02-10T01:57:47;19.60;64.20
2363;DHT22;64265;51.664;7.626;2023-02-10T02:00:19;19.70;64.30
2363;DHT22;64265;51.664;7.626;2023-02-10T02:02:46;19.60;64.20
2363;DHT22;64265;51.664;7.626;2023-02-10T02:05:21;19.60;64.20
2363;DHT22;64265;51.664;7.626;2023-02-10T02:07:49;19.60;64.20
2363;DHT22;64265;51.664;7.626;2023-02-10T02:10:17;19.60;64.20
2363;DHT22;64265;51.664;7.626;2023-02-10T02:12:50;19.60;64.20
2363;DHT22;64265;51.664;7.626;2023-02-10T02:15:25;19.60;64.20
2363;DHT22;64265;51.664;7.626;2023-02-10T02:17:57;19.60;64.20
2363;DHT22;64265;51.664;7.626;2023-02-10T02:20:44;19.60;64.20
2363;DHT22;64265;51.664;7.626;2023-02-10T02:23:34;19.60;64.20
2363;DHT22;64265;51.664;7.626;2023-02-10T02:26:26;19.60;64.20
2363;DHT22;64265;51.664;7.626;2023-02-10T02:29:09;19.60;64.20
2363;DHT22;64265;51.664;7.626;2023-02-10T02:31:54;19.60;64.20
2363;DHT22;64265;51.664;7.626;2023-02-10T02:34:30;19.60;64.20
2363;DHT22;64265;51.664;7.626;2023-02-10T02:37:02;19.60;64.20
2363;DHT22;64265;51.664;7.626;2023-02-10T02:39:30;19.60;64.20
2363;DHT22;64265;51.664;7.626;2023-02-10T02:42:14;19.60;64.20
2363;DHT22;64265;51.664;7.626;2023-02-10T02:44:42;19.60;64.20
2363;DHT22;64265;51.664;7.626;2023-02-10T02:47:16;19.60;64.20
2363;DHT22;64265;51.664;7.626;2023-02-10T02:49:50;19.60;64.20
2363;DHT22;64265;51.664;7.626;2023-02-10T02:52:20;19.60;64.20
2363;DHT22;64265;51.664;7.626;2023-02-10T02:54:54;19.60;64.20
2363;DHT22;64265;51.664;7.626;2023-02-10T02:57:28;19.60;64.20
2363;DHT22;64265;51.664;7.626;2023-02-10T03:00:03;19.60;64.10
2363;DHT22;64265;51.664;7.626;2023-02-10T03:02:34;19.60;64.10
2363;DHT22;64265;51.664;7.626;2023-02-10T03:05:03;19.60;64.10
2363;DHT22;64265;51.664;7.626;2023-02-10T03:07:30;19.60;63.60
2363;DHT22;64265;51.664;7.626;2023-02-10T03:09:57;19.60;64.10
2363;DHT22;64265;51.664;7.626;2023-02-10T03:12:23;19.60;64.10
2363;DHT22;64265;51.664;7.626;2023-02-10T03:14:50;19.60;64.10
2363;DHT22;64265;51.664;7.626;2023-02-10T03:17:17;19.60;64.10
2363;DHT22;64265;51.664;7.626;2023-02-10T03:19:45;19.60;64.20
2363;DHT22;64265;51.664;7.626;2023-02-10T03:22:11;19.60;64.10
2363;DHT22;64265;51.664;7.626;2023-02-10T03:24:38;19.60;64.10
2363;DHT22;64265;51.664;7.626;2023-02-10T03:27:05;19.60;64.10
2363;DHT22;64265;51.664;7.626;2023-02-10T03:29:32;19.60;64.10
2363;DHT22;64265;51.664;7.626;2023-02-10T03:31:58;19.60;64.10
2363;DHT22;64265;51.664;7.626;2023-02-10T03:34:27;19.60;64.10
2363;DHT22;64265;51.664;7.626;2023-02-10T03:36:55;19.60;64.00
2363;DHT22;64265;51.664;7.626;2023-02-10T03:39:22;19.60;64.00
2363;DHT22;64265;51.664;7.626;2023-02-10T03:41:49;19.60;64.00
2363;DHT22;64265;51.664;7.626;2023-02-10T03:44:16;19.60;64.00
2363;DHT22;64265;51.664;7.626;2023-02-10T03:46:42;19.60;64.00
2363;DHT22;64265;51.664;7.626;2023-02-10T03:49:09;19.60;64.00
2363;DHT22;64265;51.664;7.626;2023-02-10T03:51:36;19.60;64.00
2363;DHT22;64265;51.664;7.626;2023-02-10T03:54:04;19.60;64.00
2363;DHT22;64265;51.664;7.626;2023-02-10T03:56:31;19.60;64.00
2363;DHT22;64265;51.664;7.626;2023-02-10T03:59:00;19.60;64.00
2363;DHT22;64265;51.664;7.626;2023-02-10T04:01:26;19.60;64.00
2363;DHT22;64265;51.664;7.626;2023-02-10T04:03:53;19.60;64.00
2363;DHT22;64265;51.664;7.626;2023-02-10T04:06:20;19.60;64.00
2363;DHT22;64265;51.664;7.626;2023-02-10T04:08:47;19.60;64.00
2363;DHT22;64265;51.664;7.626;2023-02-10T04:11:15;19.60;64.00
2363;DHT22;64265;51.664;7.626;2023-02-10T04:13:42;19.60;64.00
2363;DHT22;64265;51.664;7.626;2023-02-10T04:16:10;19.60;63.90
2363;DHT22;64265;51.664;7.626;2023-02-10T04:18:37;19.60;64.00
2363;DHT22;64265;51.664;7.626;2023-02-10T04:21:05;19.60;64.00
2363;DHT22;64265;51.664;7.626;2023-02-10T04:23:32;19.60;64.00
2363;DHT22;64265;51.664;7.626;2023-02-10T04:25:59;19.60;63.90
2363;DHT22;64265;51.664;7.626;2023-02-10T04:28:27;19.60;64.00
2363;DHT22;64265;51.664;7.626;2023-02-10T04:30:54;19.60;63.90
2363;DHT22;64265;51.664;7.626;2023-02-10T04:33:22;19.60;63.90
2363;DHT22;64265;51.664;7.626;2023-02-10T04:35:50;19.60;63.90
2363;DHT22;64265;51.664;7.626;2023-02-10T04:38:17;19.60;63.90
2363;DHT22;64265;51.664;7.626;2023-02-10T04:40:44;19.60;63.90
2363;DHT22;64265;51.664;7.626;2023-02-10T04:43:12;19.60;63.90
2363;DHT22;64265;51.664;7.626;2023-02-10T04:45:41;19.60;63.90
2363;DHT22;64265;51.664;7.626;2023-02-10T04:48:08;19.60;63.90
2363;DHT22;64265;51.664;7.626;2023-02-10T04:50:36;19.50;63.80
2363;DHT22;64265;51.664;7.626;2023-02-10T04:53:03;19.50;63.80
2363;DHT22;64265;51.664;7.626;2023-02-10T04:55:29;19.50;63.80
2363;DHT22;64265;51.664;7.626;2023-02-10T04:57:56;19.60;64.00
2363;DHT22;64265;51.664;7.626;2023-02-10T05:00:23;19.50;63.80
2363;DHT22;64265;51.664;7.626;2023-02-10T05:02:51;19.50;63.80
2363;DHT22;64265;51.664;7.626;2023-02-10T05:05:18;19.50;63.70
2363;DHT22;64265;51.664;7.626;2023-02-10T05:07:45;19.50;63.80
2363;DHT22;64265;51.664;7.626;2023-02-10T05:10:11;19.50;63.80
2363;DHT22;64265;51.664;7.626;2023-02-10T05:12:38;19.50;63.80
2363;DHT22;64265;51.664;7.626;2023-02-10T05:15:05;19.50;63.80
2363;DHT22;64265;51.664;7.626;2023-02-10T05:17:33;19.50;63.80
2363;DHT22;64265;51.664;7.626;2023-02-10T05:20:01;19.50;63.80
2363;DHT22;64265;51.664;7.626;2023-02-10T05:22:28;19.50;63.80
2363;DHT22;64265;51.664;7.626;2023-02-10T05:24:55;19.50;63.70
2363;DHT22;64265;51.664;7.626;2023-02-10T05:27:22;19.50;63.10
2363;DHT22;64265;51.664;7.626;2023-02-10T05:29:49;19.50;63.70
2363;DHT22;64265;51.664;7.626;2023-02-10T05:32:15;19.50;63.70
2363;DHT22;64265;51.664;7.626;2023-02-10T05:34:42;19.50;63.70
2363;DHT22;64265;51.664;7.626;2023-02-10T05:37:10;19.50;63.70
2363;DHT22;64265;51.664;7.626;2023-02-10T05:39:37;19.50;63.70
2363;DHT22;64265;51.664;7.626;2023-02-10T05:42:04;19.50;63.70
2363;DHT22;64265;51.664;7.626;2023-02-10T05:44:30;19.50;63.70
2363;DHT22;64265;51.664;7.626;2023-02-10T05:46:58;19.50;63.70
2363;DHT22;64265;51.664;7.626;2023-02-10T05:49:24;19.50;63.70
2363;DHT22;64265;51.664;7.626;2023-02-10T05:51:51;19.50;63.70
2363;DHT22;64265;51.664;7.626;2023-02-10T05:54:20;19.50;63.70
2363;DHT22;64265;51.664;7.626;2023-02-10T05:56:46;19.50;63.70
2363;DHT22;64265;51.664;7.626;2023-02-10T05:59:15;19.50;63.60
2363;DHT22;64265;51.664;7.626;2023-02-10T06:01:42;19.50;63.60
2363;DHT22;64265;51.664;7.626;2023-02-10T06:04:08;19.50;63.70
2363;DHT22;64265;51.664;7.626;2023-02-10T06:06:35;19.50;63.60
2363;DHT22;64265;51.664;7.626;2023-02-10T06:09:02;19.50;63.60
2363;DHT22;64265;51.664;7.626;2023-02-10T06:11:30;19.50;63.60
2363;DHT22;64265;51.664;7.626;2023-02-10T06:13:57;19.50;63.60
2363;DHT22;64265;51.664;7.626;2023-02-10T06:16:24;19.50;63.60
2363;DHT22;64265;51.664;7.626;2023-02-10T06:18:51;19.50;63.60
2363;DHT22;64265;51.664;7.626;2023-02-10T06:21:18;19.50;63.60
2363;DHT22;64265;51.664;7.626;2023-02-10T06:23:44;19.50;63.70
2363;DHT22;64265;51.664;7.626;2023-02-10T06:26:11;19.50;63.60
2363;DHT22;64265;51.664;7.626;2023-02-10T06:28:39;19.60;63.70
2363;DHT22;64265;51.664;7.626;2023-02-10T06:31:06;19.60;63.70
2363;DHT22;64265;51.664;7.626;2023-02-10T06:33:33;19.60;63.70
2363;DHT22;64265;51.664;7.626;2023-02-10T06:36:01;19.60;63.70
2363;DHT22;64265;51.664;7.626;2023-02-10T06:38:29;19.60;63.70
2363;DHT22;64265;51.664;7.626;2023-02-10T06:40:55;19.60;63.70
2363;DHT22;64265;51.664;7.626;2023-02-10T06:43:22;19.60;63.70
2363;DHT22;64265;51.664;7.626;2023-02-10T06:45:50;19.60;63.70
2363;DHT22;64265;51.664;7.626;2023-02-10T06:48:17;19.60;63.70
2363;DHT22;64265;51.664;7.626;2023-02-10T06:50:44;19.60;63.70
2363;DHT22;64265;51.664;7.626;2023-02-10T06:53:10;19.60;63.70
2363;DHT22;64265;51.664;7.626;2023-02-10T06:55:37;19.60;63.70
2363;DHT22;64265;51.664;7.626;2023-02-10T06:58:04;19.60;63.70
2363;DHT22;64265;51.664;7.626;2023-02-10T07:00:31;19.60;63.70
2363;DHT22;64265;51.664;7.626;2023-02-10T07:02:59;19.60;63.70
2363;DHT22;64265;51.664;7.626;2023-02-10T07:05:26;19.60;63.70
2363;DHT22;64265;51.664;7.626;2023-02-10T07:07:53;19.60;63.70
2363;DHT22;64265;51.664;7.626;2023-02-10T07:10:20;19.60;63.70
2363;DHT22;64265;51.664;7.626;2023-02-10T07:12:47;19.60;63.70
2363;DHT22;64265;51.664;7.626;2023-02-10T07:15:13;19.60;63.70
2363;DHT22;64265;51.664;7.626;2023-02-10T07:17:42;19.60;63.70
2363;DHT22;64265;51.664;7.626;2023-02-10T07:20:11;19.60;63.70
2363;DHT22;64265;51.664;7.626;2023-02-10T07:22:37;19.60;63.70
2363;DHT22;64265;51.664;7.626;2023-02-10T07:25:05;19.60;63.70
2363;DHT22;64265;51.664;7.626;2023-02-10T07:27:31;19.60;63.70
2363;DHT22;64265;51.664;7.626;2023-02-10T07:29:58;19.60;63.70
2363;DHT22;64265;51.664;7.626;2023-02-10T07:32:25;19.60;63.70
2363;DHT22;64265;51.664;7.626;2023-02-10T07:34:51;19.60;63.70
2363;DHT22;64265;51.664;7.626;2023-02-10T07:37:20;19.60;63.70
2363;DHT22;64265;51.664;7.626;2023-02-10T07:39:46;19.60;63.70
2363;DHT22;64265;51.664;7.626;2023-02-10T07:42:13;19.60;63.70
2363;DHT22;64265;51.664;7.626;2023-02-10T07:44:40;19.60;63.70
2363;DHT22;64265;51.664;7.626;2023-02-10T07:47:06;19.60;63.70
2363;DHT22;64265;51.664;7.626;2023-02-10T07:49:33;19.60;63.70
2363;DHT22;64265;51.664;7.626;2023-02-10T07:52:00;19.60;63.70
2363;DHT22;64265;51.664;7.626;2023-02-10T07:54:28;19.60;63.70
2363;DHT22;64265;51.664;7.626;2023-02-10T07:56:57;19.60;63.60
2363;DHT22;64265;51.664;7.626;2023-02-10T07:59:23;19.70;63.70
2363;DHT22;64265;51.664;7.626;2023-02-10T08:01:50;19.70;63.80
2363;DHT22;64265;51.664;7.626;2023-02-10T08:04:17;19.70;63.70
2363;DHT22;64265;51.664;7.626;2023-02-10T08:06:44;19.70;63.70
2363;DHT22;64265;51.664;7.626;2023-02-10T08:09:10;19.70;63.70
2363;DHT22;64265;51.664;7.626;2023-02-10T08:11:38;19.80;63.90
2363;DHT22;64265;51.664;7.626;2023-02-10T08:14:05;19.80;63.90
2363;DHT22;64265;51.664;7.626;2023-02-10T08:16:32;19.80;63.90
2363;DHT22;64265;51.664;7.626;2023-02-10T08:18:58;19.80;63.90
2363;DHT22;64265;51.664;7.626;2023-02-10T08:21:25;19.80;63.90
2363;DHT22;64265;51.664;7.626;2023-02-10T08:23:52;19.80;64.00
2363;DHT22;64265;51.664;7.626;2023-02-10T08:26:22;19.80;64.90
2363;DHT22;64265;51.664;7.626;2023-02-10T08:28:50;19.80;64.20
2363;DHT22;64265;51.664;7.626;2023-02-10T08:31:20;19.80;64.30
2363;DHT22;64265;51.664;7.626;2023-02-10T08:33:47;19.80;64.20
2363;DHT22;64265;51.664;7.626;2023-02-10T08:36:15;19.80;64.30
2363;DHT22;64265;51.664;7.626;2023-02-10T08:38:43;19.80;64.30
2363;DHT22;64265;51.664;7.626;2023-02-10T08:41:10;19.80;64.30
2363;DHT22;64265;51.664;7.626;2023-02-10T08:43:37;19.80;64.30
2363;DHT22;64265;51.664;7.626;2023-02-10T08:46:05;19.80;64.30
2363;DHT22;64265;51.664;7.626;2023-02-10T08:48:33;19.80;64.20
2363;DHT22;64265;51.664;7.626;2023-02-10T08:51:00;19.80;64.10
2363;DHT22;64265;51.664;7.626;2023-02-10T08:53:27;19.80;64.10
2363;DHT22;64265;51.664;7.626;2023-02-10T08:55:56;19.80;64.90
2363;DHT22;64265;51.664;7.626;2023-02-10T08:58:23;19.80;64.10
2363;DHT22;64265;51.664;7.626;2023-02-10T09:00:49;19.80;64.20
2363;DHT22;64265;51.664;7.626;2023-02-10T09:03:17;19.80;64.20
2363;DHT22;64265;51.664;7.626;2023-02-10T09:05:44;19.80;64.30
2363;DHT22;64265;51.664;7.626;2023-02-10T09:08:14;19.80;64.40
2363;DHT22;64265;51.664;7.626;2023-02-10T09:10:42;19.80;64.40
2363;DHT22;64265;51.664;7.626;2023-02-10T09:13:08;19.80;64.50
2363;DHT22;64265;51.664;7.626;2023-02-10T09:15:37;19.90;64.60
2363;DHT22;64265;51.664;7.626;2023-02-10T09:18:04;19.90;64.50
2363;DHT22;64265;51.664;7.626;2023-02-10T09:20:33;19.90;64.50
2363;DHT22;64265;51.664;7.626;2023-02-10T09:22:59;19.90;64.50
2363;DHT22;64265;51.664;7.626;2023-02-10T09:25:26;19.90;64.50
2363;DHT22;64265;51.664;7.626;2023-02-10T09:27:53;19.90;64.50
2363;DHT22;64265;51.664;7.626;2023-02-10T09:30:23;19.90;64.50
2363;DHT22;64265;51.664;7.626;2023-02-10T09:32:50;19.90;64.50
2363;DHT22;64265;51.664;7.626;2023-02-10T09:35:17;19.90;64.50
2363;DHT22;64265;51.664;7.626;2023-02-10T09:37:45;19.90;64.60
2363;DHT22;64265;51.664;7.626;2023-02-10T09:40:16;19.90;64.60
2363;DHT22;64265;51.664;7.626;2023-02-10T09:43:02;19.90;64.60
2363;DHT22;64265;51.664;7.626;2023-02-10T09:45:35;19.90;65.40
2363;DHT22;64265;51.664;7.626;2023-02-10T09:48:17;19.90;64.60
2363;DHT22;64265;51.664;7.626;2023-02-10T09:50:50;19.90;64.60
2363;DHT22;64265;51.664;7.626;2023-02-10T09:53:20;19.90;64.60
2363;DHT22;64265;51.664;7.626;2023-02-10T09:55:50;19.90;64.60
2363;DHT22;64265;51.664;7.626;2023-02-10T09:58:21;19.90;64.60
2363;DHT22;64265;51.664;7.626;2023-02-10T10:00:55;19.90;64.60
2363;DHT22;64265;51.664;7.626;2023-02-10T10:03:27;19.90;64.60
2363;DHT22;64265;51.664;7.626;2023-02-10T10:06:02;19.90;64.60
2363;DHT22;64265;51.664;7.626;2023-02-10T10:08:38;19.90;64.60
2363;DHT22;64265;51.664;7.626;2023-02-10T10:11:19;19.90;64.60
2363;DHT22;64265;51.664;7.626;2023-02-10T10:13:48;19.90;64.70
2363;DHT22;64265;51.664;7.626;2023-02-10T10:16:22;19.90;65.50
2363;DHT22;64265;51.664;7.626;2023-02-10T10:19:01;19.90;64.60
2363;DHT22;64265;51.664;7.626;2023-02-10T10:21:37;19.90;64.60
2363;DHT22;64265;51.664;7.626;2023-02-10T10:24:22;19.90;64.70
2363;DHT22;64265;51.664;7.626;2023-02-10T10:27:02;19.90;64.60
2363;DHT22;64265;51.664;7.626;2023-02-10T10:29:41;19.90;64.60
2363;DHT22;64265;51.664;7.626;2023-02-10T10:32:14;19.90;64.60
2363;DHT22;64265;51.664;7.626;2023-02-10T10:34:48;19.90;64.60
2363;DHT22;64265;51.664;7.626;2023-02-10T10:37:22;19.90;64.70
2363;DHT22;64265;51.664;7.626;2023-02-10T10:39:52;19.90;64.70
2363;DHT22;64265;51.664;7.626;2023-02-10T10:42:26;19.90;64.70
2363;DHT22;64265;51.664;7.626;2023-02-10T10:44:58;19.90;64.90
2363;DHT22;64265;51.664;7.626;2023-02-10T10:47:34;19.90;65.70
2363;DHT22;64265;51.664;7.626;2023-02-10T10:50:03;19.90;64.90
2363;DHT22;64265;51.664;7.626;2023-02-10T10:52:32;19.90;64.80
2363;DHT22;64265;51.664;7.626;2023-02-10T10:55:06;19.90;64.90
2363;DHT22;64265;51.664;7.626;2023-02-10T10:57:35;19.90;64.90
2363;DHT22;64265;51.664;7.626;2023-02-10T11:00:06;19.90;65.00
2363;DHT22;64265;51.664;7.626;2023-02-10T11:02:39;19.90;65.00
2363;DHT22;64265;51.664;7.626;2023-02-10T11:05:16;20.00;65.20
2363;DHT22;64265;51.664;7.626;2023-02-10T11:07:48;20.00;65.20
2363;DHT22;64265;51.664;7.626;2023-02-10T11:10:24;20.00;65.30
2363;DHT22;64265;51.664;7.626;2023-02-10T11:12:52;20.10;65.40
2363;DHT22;64265;51.664;7.626;2023-02-10T11:15:33;20.10;65.40
2363;DHT22;64265;51.664;7.626;2023-02-10T11:18:02;20.10;65.50
2363;DHT22;64265;51.664;7.626;2023-02-10T11:20:33;20.10;65.50
2363;DHT22;64265;51.664;7.626;2023-02-10T11:23:02;20.10;65.60
2363;DHT22;64265;51.664;7.626;2023-02-10T11:25:33;20.10;65.70
2363;DHT22;64265;51.664;7.626;2023-02-10T11:28:03;20.10;65.90
2363;DHT22;64265;51.664;7.626;2023-02-10T11:30:31;20.10;65.90
2363;DHT22;64265;51.664;7.626;2023-02-10T11:33:00;20.10;65.90
2363;DHT22;64265;51.664;7.626;2023-02-10T11:35:28;20.10;65.90
2363;DHT22;64265;51.664;7.626;2023-02-10T11:37:58;20.10;65.90
2363;DHT22;64265;51.664;7.626;2023-02-10T11:40:28;20.10;66.00
2363;DHT22;64265;51.664;7.626;2023-02-10T11:42:58;20.20;66.10
2363;DHT22;64265;51.664;7.626;2023-02-10T11:45:27;20.20;66.20
2363;DHT22;64265;51.664;7.626;2023-02-10T11:48:02;20.20;66.10
2363;DHT22;64265;51.664;7.626;2023-02-10T11:50:32;20.20;66.10
2363;DHT22;64265;51.664;7.626;2023-02-10T11:52:59;20.20;66.10
2363;DHT22;64265;51.664;7.626;2023-02-10T11:55:34;20.20;66.10
2363;DHT22;64265;51.664;7.626;2023-02-10T11:58:22;20.20;66.20
2363;DHT22;64265;51.664;7.626;2023-02-10T12:01:15;20.20;66.30
2363;DHT22;64265;51.664;7.626;2023-02-10T12:03:56;20.20;66.30
2363;DHT22;64265;51.664;7.626;2023-02-10T12:06:32;20.20;66.20
2363;DHT22;64265;51.664;7.626;2023-02-10T12:09:07;20.30;66.40
2363;DHT22;64265;51.664;7.626;2023-02-10T12:11:42;20.30;66.40
2363;DHT22;64265;51.664;7.626;2023-02-10T12:14:28;20.30;66.50
2363;DHT22;64265;51.664;7.626;2023-02-10T12:17:03;20.30;66.50
2363;DHT22;64265;51.664;7.626;2023-02-10T12:19:36;20.30;66.50
2363;DHT22;64265;51.664;7.626;2023-02-10T12:22:12;20.30;66.50
2363;DHT22;64265;51.664;7.626;2023-02-10T12:25:06;20.40;66.80
2363;DHT22;64265;51.664;7.626;2023-02-10T12:27:44;20.40;67.50
2363;DHT22;64265;51.664;7.626;2023-02-10T12:30:22;20.40;66.70
2363;DHT22;64265;51.664;7.626;2023-02-10T12:33:02;20.40;66.70
2363;DHT22;64265;51.664;7.626;2023-02-10T12:35:40;20.40;66.70
2363;DHT22;64265;51.664;7.626;2023-02-10T12:38:25;20.40;66.80
2363;DHT22;64265;51.664;7.626;2023-02-10T12:41:01;20.40;66.80
2363;DHT22;64265;51.664;7.626;2023-02-10T12:44:02;20.40;66.90
2363;DHT22;64265;51.664;7.626;2023-02-10T12:46:38;20.40;66.90
2363;DHT22;64265;51.664;7.626;2023-02-10T12:49:14;20.40;66.90
2363;DHT22;64265;51.664;7.626;2023-02-10T12:51:54;20.40;67.00
2363;DHT22;64265;51.664;7.626;2023-02-10T12:54:26;20.40;67.90
2363;DHT22;64265;51.664;7.626;2023-02-10T12:56:59;20.40;67.00
2363;DHT22;64265;51.664;7.626;2023-02-10T12:59:29;20.40;67.00
2363;DHT22;64265;51.664;7.626;2023-02-10T13:02:04;20.50;67.10
2363;DHT22;64265;51.664;7.626;2023-02-10T13:04:35;20.50;67.20
2363;DHT22;64265;51.664;7.626;2023-02-10T13:07:07;20.50;67.30
2363;DHT22;64265;51.664;7.626;2023-02-10T13:09:40;20.50;67.30
2363;DHT22;64265;51.664;7.626;2023-02-10T13:12:14;20.50;67.30
2363;DHT22;64265;51.664;7.626;2023-02-10T13:14:43;20.50;67.30
2363;DHT22;64265;51.664;7.626;2023-02-10T13:17:13;20.50;67.30
2363;DHT22;64265;51.664;7.626;2023-02-10T13:19:46;20.50;67.30
2363;DHT22;64265;51.664;7.626;2023-02-10T13:22:21;20.60;67.40
2363;DHT22;64265;51.664;7.626;2023-02-10T13:24:57;20.50;67.30
2363;DHT22;64265;51.664;7.626;2023-02-10T13:27:33;20.60;67.40
2363;DHT22;64265;51.664;7.626;2023-02-10T13:30:15;20.60;67.50
2363;DHT22;64265;51.664;7.626;2023-02-10T13:32:55;20.60;67.40
2363;DHT22;64265;51.664;7.626;2023-02-10T13:35:24;20.60;67.40
2363;DHT22;64265;51.664;7.626;2023-02-10T13:37:53;20.60;67.40
2363;DHT22;64265;51.664;7.626;2023-02-10T13:40:24;20.60;67.40
2363;DHT22;64265;51.664;7.626;2023-02-10T13:42:53;20.60;67.40
2363;DHT22;64265;51.664;7.626;2023-02-10T13:45:23;20.60;67.40
2363;DHT22;64265;51.664;7.626;2023-02-10T13:47:54;20.60;67.40
2363;DHT22;64265;51.664;7.626;2023-02-10T13:50:27;20.60;67.40
2363;DHT22;64265;51.664;7.626;2023-02-10T13:52:57;20.60;67.40
2363;DHT22;64265;51.664;7.626;2023-02-10T13:55:30;20.60;67.40
2363;DHT22;64265;51.664;7.626;2023-02-10T14:00:58;20.60;67.50
2363;DHT22;64265;51.664;7.626;2023-02-10T14:03:28;20.60;67.30
2363;DHT22;64265;51.664;7.626;2023-02-10T14:05:57;20.40;63.10
2363;DHT22;64265;51.664;7.626;2023-02-10T14:08:31;20.00;59.20
2363;DHT22;64265;51.664;7.626;2023-02-10T14:11:03;19.60;57.10
2363;DHT22;64265;51.664;7.626;2023-02-10T14:13:31;19.40;55.60
2363;DHT22;64265;51.664;7.626;2023-02-10T14:16:01;19.10;53.90
2363;DHT22;64265;51.664;7.626;2023-02-10T14:18:31;18.90;53.20
2363;DHT22;64265;51.664;7.626;2023-02-10T14:21:02;18.80;53.10
2363;DHT22;64265;51.664;7.626;2023-02-10T14:23:32;18.70;52.50
2363;DHT22;64265;51.664;7.626;2023-02-10T14:26:02;18.70;52.70
2363;DHT22;64265;51.664;7.626;2023-02-10T14:28:31;18.60;51.80
2363;DHT22;64265;51.664;7.626;2023-02-10T14:31:02;18.50;51.60
2363;DHT22;64265;51.664;7.626;2023-02-10T14:33:33;18.70;52.80
2363;DHT22;64265;51.664;7.626;2023-02-10T14:36:02;19.00;53.80
2363;DHT22;64265;51.664;7.626;2023-02-10T14:38:31;19.30;54.70
2363;DHT22;64265;51.664;7.626;2023-02-10T14:41:00;19.50;55.20
2363;DHT22;64265;51.664;7.626;2023-02-10T14:43:29;19.70;55.70
2363;DHT22;64265;51.664;7.626;2023-02-10T14:45:57;19.80;56.10
2363;DHT22;64265;51.664;7.626;2023-02-10T14:48:26;19.90;56.50
2363;DHT22;64265;51.664;7.626;2023-02-10T14:51:02;20.00;56.90
2363;DHT22;64265;51.664;7.626;2023-02-10T14:53:30;20.00;57.70
2363;DHT22;64265;51.664;7.626;2023-02-10T14:55:58;20.10;57.50
2363;DHT22;64265;51.664;7.626;2023-02-10T14:58:25;20.10;57.70
2363;DHT22;64265;51.664;7.626;2023-02-10T15:01:02;20.10;57.90
2363;DHT22;64265;51.664;7.626;2023-02-10T15:03:31;20.20;58.20
2363;DHT22;64265;51.664;7.626;2023-02-10T15:05:59;20.20;58.40
2363;DHT22;64265;51.664;7.626;2023-02-10T15:08:36;20.20;58.60
2363;DHT22;64265;51.664;7.626;2023-02-10T15:11:07;20.30;58.90
2363;DHT22;64265;51.664;7.626;2023-02-10T15:13:39;20.30;59.00
2363;DHT22;64265;51.664;7.626;2023-02-10T15:16:08;20.30;59.20
2363;DHT22;64265;51.664;7.626;2023-02-10T15:18:39;20.30;59.30
2363;DHT22;64265;51.664;7.626;2023-02-10T15:24:20;20.30;59.40
2363;DHT22;64265;51.664;7.626;2023-02-10T15:26:47;20.40;60.50
2363;DHT22;64265;51.664;7.626;2023-02-10T15:29:15;20.40;59.90
2363;DHT22;64265;51.664;7.626;2023-02-10T15:31:42;20.40;60.00
2363;DHT22;64265;51.664;7.626;2023-02-10T15:34:20;20.40;60.10
2363;DHT22;64265;51.664;7.626;2023-02-10T15:36:51;20.40;60.30
2363;DHT22;64265;51.664;7.626;2023-02-10T15:39:24;20.40;60.50
2363;DHT22;64265;51.664;7.626;2023-02-10T15:42:00;20.40;60.60
2363;DHT22;64265;51.664;7.626;2023-02-10T15:44:30;20.40;60.70
2363;DHT22;64265;51.664;7.626;2023-02-10T15:47:19;20.40;60.80
2363;DHT22;64265;51.664;7.626;2023-02-10T15:49:47;20.40;61.00
2363;DHT22;64265;51.664;7.626;2023-02-10T15:52:19;20.40;61.20
2363;DHT22;64265;51.664;7.626;2023-02-10T15:54:48;20.40;61.30
2363;DHT22;64265;51.664;7.626;2023-02-10T15:57:17;20.40;61.40
2363;DHT22;64265;51.664;7.626;2023-02-10T15:59:44;20.40;61.50
2363;DHT22;64265;51.664;7.626;2023-02-10T16:02:14;20.40;61.70
2363;DHT22;64265;51.664;7.626;2023-02-10T16:04:40;20.40;61.90
2363;DHT22;64265;51.664;7.626;2023-02-10T16:07:09;20.40;62.00
2363;DHT22;64265;51.664;7.626;2023-02-10T16:09:38;20.40;63.00